Time;durP1;ratioP1;P1;durP2;ratioP2;P2;SDS_P1;SDS_P2;PMS_P1;PMS_P2;Temp;Humidity;BMP_temperature;BMP_pressure;BME280_temperature;BME280_humidity;BME280_pressure;Samples;Min_cycle;Max_cycle;Signal;HPM_P1;HPM_P2
2022/02/07 00:00:40;;;;;;;6.38;2.10;;;;;;;;;;4955223;28;20118;-80
2022/02/07 00:03:16;;;;;;;3.40;1.65;;;;;;;;;;4951459;28;20036;-79
2022/02/07 00:05:42;;;;;;;5.32;1.67;;;;;;;;;;4950495;28;20483;-79
2022/02/07 00:08:10;;;;;;;4.00;1.42;;;;;;;;;;4943816;28;20478;-80
2022/02/07 00:10:38;;;;;;;2.67;1.08;;;5.70;99.90;;;;;;4947480;28;20031;-79
2022/02/07 00:13:04;;;;;;;3.40;1.00;;;;;;;;;;4946496;28;20027;-78
2022/02/07 00:15:30;;;;;;;4.13;0.93;;;;;;;;;;4947988;28;20052;-78
2022/02/07 00:17:56;;;;;;;3.50;1.25;;;;;;;;;;4940212;28;20066;-78
2022/02/07 00:20:24;;;;;;;3.65;0.80;;;;;;;;;;4952885;28;20032;-78
2022/02/07 00:22:50;;;;;;;4.32;1.52;;;5.80;99.90;;;;;;4949143;28;20069;-79
2022/02/07 00:25:17;;;;;;;3.70;1.10;;;5.70;99.90;;;;;;4943908;29;20035;-78
2022/02/07 00:27:43;;;;;;;3.88;1.48;;;;;;;;;;4945791;28;20039;-79
2022/02/07 00:30:11;;;;;;;3.10;1.30;;;5.80;99.90;;;;;;4950063;28;20415;-78
2022/02/07 00:32:37;;;;;;;4.88;0.98;;;;;;;;;;4950913;28;20034;-79
2022/02/07 00:35:05;;;;;;;3.20;1.45;;;5.90;99.90;;;;;;4942916;28;20049;-78
2022/02/07 00:37:33;;;;;;;2.85;1.15;;;;;;;;;;4944907;28;20319;-78
2022/02/07 00:40:27;;;;;;;3.28;1.10;;;;;;;;;;4964467;28;20439;-78
2022/02/07 00:43:02;;;;;;;3.22;0.98;;;5.80;99.90;;;;;;4945327;28;20499;-78
2022/02/07 00:48:08;;;;;;;2.20;0.60;;;5.70;99.90;;;;;;4943324;28;20055;-76
2022/02/07 00:50:34;;;;;;;;;;;5.90;99.90;;;;;;4947344;28;20511;-78
2022/02/07 00:53:00;;;;;;;3.75;0.90;;;;;;;;;;4949149;28;19918;-78
2022/02/07 00:55:26;;;;;;;2.47;0.80;;;;;;;;;;4945374;28;20031;-78
2022/02/07 00:57:53;;;;;;;5.53;0.80;;;;;;;;;;4940659;28;20046;-77
2022/02/07 01:00:19;;;;;;;5.30;1.15;;;;;;;;;;4967953;28;20031;-77
2022/02/07 01:02:45;;;;;;;6.65;3.10;;;;;;;;;;4952142;28;20043;-78
2022/02/07 01:05:12;;;;;;;4.93;1.48;;;6.00;99.90;;;;;;4946673;28;20064;-78
2022/02/07 01:07:38;;;;;;;5.90;0.80;;;;;;;;;;4950230;28;20433;-76
2022/02/07 01:10:06;;;;;;;6.40;1.00;;;5.90;99.90;;;;;;4944059;28;20037;-78
2022/02/07 01:15:08;;;;;;;5.15;0.95;;;;;;;;;;4944571;28;20036;-77
2022/02/07 01:23:06;;;;;;;5.68;1.92;;;;;;;;;;4946146;28;20046;-79
2022/02/07 01:47:47;;;;;;;7.60;1.00;;;;;;;;;;4947442;29;20049;-77
2022/02/07 01:57:53;;;;;;;8.38;1.38;;;5.40;99.90;;;;;;4946295;28;20491;-77
2022/02/07 02:00:19;;;;;;;5.07;1.20;;;;;;;;;;4947532;28;20032;-78
2022/02/07 02:02:46;;;;;;;2.95;1.00;;;5.60;99.90;;;;;;4941539;28;20977;-78
2022/02/07 02:05:12;;;;;;;6.18;1.05;;;;;;;;;;4950194;28;20037;-77
2022/02/07 02:07:38;;;;;;;4.07;1.05;;;5.80;99.90;;;;;;4941956;28;20118;-79
2022/02/07 02:10:04;;;;;;;4.28;0.73;;;;;;;;;;4944686;29;20039;-78
2022/02/07 02:12:35;;;;;;;2.47;0.70;;;;;;;;;;4946475;28;20031;-78
2022/02/07 02:15:22;;;;;;;2.95;0.68;;;;;;;;;;4957965;28;20035;-77
2022/02/07 02:32:39;;;;;;;4.43;1.25;;;;;;;;;;4945769;28;20034;-78
2022/02/07 02:37:08;;;;;;;7.78;2.83;;;;;;;;;;4949648;28;20069;-77
2022/02/07 02:47:33;;;;;;;14.30;4.65;;;5.00;99.90;;;;;;4944167;29;20131;-78
2022/02/07 02:50:15;;;;;;;10.13;3.10;;;;;;;;;;4951137;28;20483;-77
2022/02/07 02:52:41;;;;;;;7.78;1.70;;;4.90;99.90;;;;;;4941763;28;20039;-78
2022/02/07 02:55:07;;;;;;;5.05;1.40;;;5.00;99.90;;;;;;4947852;28;20134;-78
2022/02/07 02:57:33;;;;;;;6.30;1.50;;;5.00;99.90;;;;;;4947382;28;20038;-77
2022/02/07 02:59:58;;;;;;;5.30;1.77;;;5.00;99.90;;;;;;4959820;28;20031;-78
2022/02/07 03:02:24;;;;;;;5.47;1.20;;;5.00;99.90;;;;;;4940033;28;20263;-77
2022/02/07 03:04:50;;;;;;;6.70;1.40;;;;;;;;;;4949413;28;20031;-78
2022/02/07 03:07:16;;;;;;;4.72;1.10;;;;;;;;;;4943769;28;20062;-78
2022/02/07 03:09:48;;;;;;;5.00;1.15;;;4.80;99.90;;;;;;4946593;28;20058;-77
2022/02/07 03:12:15;;;;;;;3.50;1.23;;;4.80;99.90;;;;;;4960236;28;20051;-78
2022/02/07 03:14:44;;;;;;;2.95;1.17;;;4.80;99.90;;;;;;4947860;28;20043;-77
2022/02/07 03:17:10;;;;;;;3.72;1.55;;;4.80;99.90;;;;;;4942516;28;20035;-77
2022/02/07 03:19:36;;;;;;;4.85;0.93;;;4.80;99.90;;;;;;4948553;28;20054;-78
2022/02/07 03:22:02;;;;;;;1.80;0.80;;;4.70;99.90;;;;;;4951844;28;20097;-77
2022/02/07 03:24:28;;;;;;;3.20;1.02;;;;;;;;;;4954434;28;20038;-78
2022/02/07 03:26:54;;;;;;;2.40;0.93;;;;;;;;;;4949308;29;20046;-77
2022/02/07 03:29:19;;;;;;;6.20;0.98;;;4.80;99.90;;;;;;4941257;29;20065;-78
2022/02/07 03:31:45;;;;;;;4.80;0.90;;;;;;;;;;4956773;28;20034;-78
2022/02/07 03:34:11;;;;;;;3.72;0.90;;;;;;;;;;4946110;28;20032;-78
2022/02/07 03:36:38;;;;;;;5.03;1.30;;;;;;;;;;4948826;28;20455;-78
2022/02/07 03:39:05;;;;;;;2.55;1.10;;;4.70;99.90;;;;;;4965836;28;20027;-78
2022/02/07 03:41:32;;;;;;;3.60;1.10;;;;;;;;;;4946564;28;20027;-78
2022/02/07 03:43:58;;;;;;;1.98;0.70;;;4.60;99.90;;;;;;4943692;28;20081;-78
2022/02/07 03:46:24;;;;;;;2.28;0.70;;;;;;;;;;4947716;28;20044;-78
2022/02/07 03:48:50;;;;;;;1.95;0.68;;;;;;;;;;4945653;28;20031;-78
2022/02/07 03:51:15;;;;;;;5.72;0.77;;;4.90;99.90;;;;;;4948840;28;20039;-78
2022/02/07 03:53:41;;;;;;;1.73;0.93;;;4.90;99.90;;;;;;4948699;28;20061;-78
2022/02/07 03:56:07;;;;;;;3.05;0.68;;;;;;;;;;4942200;28;20071;-77
2022/02/07 03:58:33;;;;;;;1.25;0.50;;;4.90;99.90;;;;;;4946422;28;20487;-78
2022/02/07 04:00:59;;;;;;;2.63;0.82;;;4.80;99.90;;;;;;4944950;28;20059;-78
2022/02/07 04:03:28;;;;;;;2.55;0.47;;;;;;;;;;4944969;28;20042;-78
2022/02/07 04:05:58;;;;;;;2.80;0.80;;;4.60;99.90;;;;;;4945324;28;20034;-77
2022/02/07 04:08:30;;;;;;;1.83;0.70;;;;;;;;;;4944826;28;20454;-77
2022/02/07 04:11:10;;;;;;;2.70;0.80;;;4.50;99.90;;;;;;4944059;28;20024;-78
2022/02/07 04:13:37;;;;;;;2.00;0.70;;;4.40;99.90;;;;;;4947551;28;20031;-76
2022/02/07 04:16:06;;;;;;;4.35;0.70;;;4.30;99.90;;;;;;4943782;28;20031;-78
2022/02/07 04:18:46;;;;;;;1.23;0.82;;;;;;;;;;4944100;28;20024;-79
2022/02/07 04:21:12;;;;;;;2.13;0.90;;;4.20;99.90;;;;;;4941362;28;20292;-78
2022/02/07 04:23:38;;;;;;;2.60;0.70;;;4.10;99.90;;;;;;4949744;28;20023;-78
2022/02/07 04:26:04;;;;;;;2.40;0.60;;;;;;;;;;4943951;28;20059;-78
2022/02/07 04:28:29;;;;;;;2.75;0.88;;;4.10;99.90;;;;;;4961913;28;20039;-78
2022/02/07 04:30:55;;;;;;;2.72;0.90;;;;;;;;;;4950429;28;20050;-78
2022/02/07 04:33:21;;;;;;;2.33;0.90;;;;;;;;;;4948771;28;21198;-78
2022/02/07 04:35:47;;;;;;;2.38;0.88;;;4.00;99.90;;;;;;4952735;28;20061;-77
2022/02/07 04:38:12;;;;;;;4.82;1.30;;;3.90;99.90;;;;;;4953717;28;20118;-78
2022/02/07 04:40:38;;;;;;;5.07;1.10;;;3.90;99.90;;;;;;4951212;28;20032;-78
2022/02/07 04:43:05;;;;;;;4.53;1.30;;;3.90;99.90;;;;;;4953278;28;20193;-78
2022/02/07 04:45:45;;;;;;;4.88;0.95;;;3.80;99.90;;;;;;4948500;28;20946;-77
2022/02/07 04:56:59;;;;;;;5.70;1.90;;;3.90;99.90;;;;;;4948012;28;20529;-78
2022/02/07 04:59:06;;;;;;;8.02;2.13;;;3.90;99.90;;;;;;4948642;29;20051;-78
2022/02/07 05:01:36;;;;;;;11.15;2.70;;;3.90;99.90;;;;;;4951364;28;20525;-77
2022/02/07 05:04:09;;;;;;;8.02;2.00;;;;;;;;;;4946254;28;20055;-77
2022/02/07 05:14:50;;;;;;;10.43;2.50;;;4.00;99.90;;;;;;4946995;29;20098;-78
2022/02/07 05:17:19;;;;;;;6.18;2.45;;;4.10;99.90;;;;;;4942353;28;20475;-77
2022/02/07 05:19:44;;;;;;;6.97;2.00;;;4.10;99.90;;;;;;4945191;28;20176;-77
2022/02/07 05:22:10;;;;;;;11.27;2.42;;;4.10;99.90;;;;;;4948639;28;20499;-77
2022/02/07 05:24:36;;;;;;;6.90;1.80;;;4.10;99.90;;;;;;4951822;28;20051;-77
2022/02/07 05:27:02;;;;;;;8.70;2.33;;;4.20;99.90;;;;;;4943083;28;20438;-78
2022/02/07 05:29:28;;;;;;;12.10;2.40;;;;;;;;;;4948873;28;20571;-78
2022/02/07 05:31:53;;;;;;;9.90;1.90;;;4.30;99.90;;;;;;4953089;28;20168;-77
2022/02/07 05:34:19;;;;;;;10.88;2.00;;;;;;;;;;4945726;28;20039;-77
2022/02/07 05:36:46;;;;;;;8.77;1.75;;;4.20;99.90;;;;;;4946229;28;20043;-78
2022/02/07 05:39:18;;;;;;;5.85;1.80;;;4.10;99.90;;;;;;4945653;28;20040;-78
2022/02/07 05:41:44;;;;;;;8.68;1.92;;;4.10;99.90;;;;;;4944451;28;20082;-77
2022/02/07 05:44:12;;;;;;;7.95;1.98;;;4.00;99.90;;;;;;4942456;28;20038;-79
2022/02/07 05:46:38;;;;;;;12.43;3.33;;;4.00;99.90;;;;;;4931276;28;20037;-77
2022/02/07 05:49:05;;;;;;;10.27;2.53;;;3.90;99.90;;;;;;4934104;28;20495;-77
2022/02/07 05:51:30;;;;;;;13.13;3.28;;;4.00;99.90;;;;;;4944310;28;20028;-78
2022/02/07 05:53:56;;;;;;;10.68;2.88;;;3.90;99.90;;;;;;4956660;28;20031;-77
2022/02/07 05:56:21;;;;;;;13.73;2.08;;;3.90;99.90;;;;;;4943069;28;20106;-78
2022/02/07 05:58:47;;;;;;;7.05;2.05;;;4.00;99.90;;;;;;4940865;28;20057;-77
2022/02/07 06:01:12;;;;;;;11.75;2.38;;;3.90;99.90;;;;;;4934306;28;20034;-77
2022/02/07 06:03:38;;;;;;;8.32;2.20;;;3.90;99.90;;;;;;4951075;28;20031;-78
2022/02/07 06:06:04;;;;;;;7.03;2.17;;;3.90;99.90;;;;;;4941990;28;20034;-77
2022/02/07 06:08:32;;;;;;;9.93;1.83;;;3.80;99.90;;;;;;4938340;28;20074;-76
2022/02/07 06:11:06;;;;;;;11.38;1.60;;;3.80;99.90;;;;;;4942090;28;20425;-77
2022/02/07 06:13:32;;;;;;;5.93;2.58;;;3.80;99.90;;;;;;4945532;28;20145;-77
2022/02/07 06:15:58;;;;;;;11.60;2.00;;;3.80;99.90;;;;;;4936119;28;20442;-77
2022/02/07 06:18:24;;;;;;;6.75;1.70;;;3.70;99.90;;;;;;4941471;28;20044;-77
2022/02/07 06:20:54;;;;;;;11.45;2.60;;;3.70;99.90;;;;;;4937666;28;20541;-78
2022/02/07 06:23:20;;;;;;;5.95;1.70;;;3.70;99.90;;;;;;4940769;28;20086;-77
2022/02/07 06:25:46;;;;;;;12.27;2.28;;;3.70;99.90;;;;;;4935181;28;20468;-77
2022/02/07 06:28:12;;;;;;;9.95;2.35;;;3.70;99.90;;;;;;4938757;28;20038;-77
2022/02/07 06:30:37;;;;;;;10.40;1.75;;;3.60;99.90;;;;;;4935657;28;20027;-78
2022/02/07 06:33:06;;;;;;;8.98;1.83;;;3.70;99.90;;;;;;4939796;28;20126;-77
2022/02/07 06:35:32;;;;;;;9.93;1.85;;;3.60;99.90;;;;;;4935481;28;20239;-77
2022/02/07 06:37:58;;;;;;;7.97;2.17;;;3.80;99.90;;;;;;4940903;28;20027;-76
2022/02/07 06:40:23;;;;;;;8.18;2.40;;;3.60;99.90;;;;;;4945438;28;20118;-78
2022/02/07 06:42:49;;;;;;;6.40;1.80;;;3.60;99.90;;;;;;4946628;28;20023;-77
2022/02/07 06:45:14;;;;;;;9.15;2.22;;;3.60;99.90;;;;;;4946922;28;20041;-80
2022/02/07 06:47:40;;;;;;;12.07;2.55;;;3.60;99.90;;;;;;4942488;28;20038;-77
2022/02/07 06:50:06;;;;;;;5.78;1.73;;;3.60;99.90;;;;;;4940724;28;20035;-77
2022/02/07 06:52:32;;;;;;;5.85;1.92;;;3.60;99.90;;;;;;4945883;28;20035;-77
2022/02/07 06:54:57;;;;;;;8.65;1.83;;;3.50;99.90;;;;;;4948162;28;20024;-77
2022/02/07 06:57:23;;;;;;;10.68;2.53;;;3.50;99.90;;;;;;4942064;28;20031;-77
2022/02/07 06:59:49;;;;;;;9.93;2.42;;;3.40;99.90;;;;;;4943515;28;20066;-77
2022/02/07 07:02:15;;;;;;;6.35;1.95;;;3.50;99.90;;;;;;4940015;28;20023;-77
2022/02/07 07:04:41;;;;;;;12.38;2.45;;;3.40;99.90;;;;;;4940233;28;20564;-77
2022/02/07 07:07:07;;;;;;;8.85;2.90;;;3.40;99.90;;;;;;4945026;28;20647;-77
2022/02/07 07:09:34;;;;;;;8.30;2.60;;;3.50;99.90;;;;;;4941237;28;20126;-78
2022/02/07 07:12:03;;;;;;;11.13;3.78;;;3.50;99.90;;;;;;4931902;28;20525;-76
2022/02/07 07:14:40;;;;;;;11.77;3.17;;;3.50;99.90;;;;;;4928760;28;20551;-77
2022/02/07 07:17:06;;;;;;;17.48;3.30;;;3.50;99.90;;;;;;4938116;28;20097;-78
2022/02/07 07:19:32;;;;;;;6.60;2.88;;;3.50;99.90;;;;;;4939981;28;20027;-77
2022/02/07 07:21:59;;;;;;;18.80;3.40;;;3.60;99.90;;;;;;4942031;28;20019;-76
2022/02/07 07:24:25;;;;;;;10.80;4.10;;;3.60;99.90;;;;;;4941787;28;20035;-77
2022/02/07 07:26:51;;;;;;;11.77;3.28;;;3.60;99.90;;;;;;4940455;28;20027;-79
2022/02/07 07:29:22;;;;;;;14.77;3.40;;;3.50;99.90;;;;;;4945494;28;20675;-77
2022/02/07 07:31:55;;;;;;;10.25;3.00;;;3.50;99.90;;;;;;4929650;28;20110;-78
2022/02/07 07:34:22;;;;;;;11.52;3.22;;;3.50;99.90;;;;;;4939571;28;20400;-78
2022/02/07 07:36:47;;;;;;;10.77;3.85;;;3.60;99.90;;;;;;4934573;28;20137;-78
2022/02/07 07:39:14;;;;;;;11.43;3.53;;;3.60;99.90;;;;;;4942760;28;20106;-78
2022/02/07 07:41:45;;;;;;;13.85;3.40;;;3.60;99.90;;;;;;4942767;28;20031;-78
2022/02/07 07:44:13;;;;;;;13.63;3.20;;;3.70;99.90;;;;;;4942169;28;20023;-76
2022/02/07 07:46:39;;;;;;;9.80;2.92;;;5.30;99.90;;;;;;4942988;28;20046;-78
2022/02/07 07:49:59;;;;;;;7.85;2.75;;;3.80;99.90;;;;;;4952109;28;20031;-78
2022/02/07 07:51:56;;;;;;;16.13;3.50;;;3.90;99.90;;;;;;4934667;28;20039;-78
2022/02/07 07:54:30;;;;;;;7.07;2.72;;;3.90;99.90;;;;;;4952416;28;20027;-78
2022/02/07 08:02:28;;;;;;;12.43;2.25;;;4.10;99.90;;;;;;4933672;28;20565;-78
2022/02/07 08:04:55;;;;;;;12.95;2.63;;;4.20;99.90;;;;;;4949167;28;20078;-77
2022/02/07 08:07:43;;;;;;;9.00;2.17;;;4.20;99.90;;;;;;4956337;28;20035;-77
2022/02/07 08:13:19;;;;;;;8.70;2.28;;;;;;;;;;4930268;28;20051;-77
2022/02/07 08:15:45;;;;;;;10.88;2.20;;;4.40;99.90;;;;;;4940407;28;20066;-77
2022/02/07 08:18:12;;;;;;;10.27;1.90;;;;;;;;;;4940731;28;20031;-78
2022/02/07 08:20:37;;;;;;;11.20;2.42;;;4.40;99.90;;;;;;4940407;28;20057;-77
2022/02/07 08:23:09;;;;;;;17.15;3.45;;;4.40;99.90;;;;;;4940432;28;20526;-78
2022/02/07 08:25:35;;;;;;;6.53;2.33;;;4.40;99.90;;;;;;4942525;28;20039;-77
2022/02/07 08:28:01;;;;;;;7.60;2.00;;;4.30;99.90;;;;;;4940010;28;20503;-77
2022/02/07 08:30:28;;;;;;;8.90;1.92;;;4.40;99.90;;;;;;4939547;28;20050;-77
2022/02/07 08:32:54;;;;;;;7.93;1.80;;;4.40;99.90;;;;;;4941412;28;20035;-77
2022/02/07 08:35:20;;;;;;;11.90;2.42;;;4.40;99.90;;;;;;4938322;28;20031;-78
2022/02/07 08:37:49;;;;;;;7.75;2.10;;;4.50;99.90;;;;;;4933426;28;20038;-77
2022/02/07 08:40:14;;;;;;;10.55;2.40;;;4.50;99.90;;;;;;4940259;28;20027;-77
2022/02/07 08:42:40;;;;;;;12.20;3.03;;;5.10;99.90;;;;;;4938323;28;20091;-78
2022/02/07 08:45:06;;;;;;;6.95;2.03;;;7.90;99.90;;;;;;4942194;28;20058;-77
2022/02/07 08:47:32;;;;;;;10.40;1.80;;;4.60;99.90;;;;;;4939943;28;20031;-78
2022/02/07 08:49:59;;;;;;;9.43;1.85;;;4.60;99.90;;;;;;4939652;28;20269;-77
2022/02/07 08:52:25;;;;;;;4.85;1.73;;;4.60;99.90;;;;;;4938661;28;20380;-77
2022/02/07 08:54:51;;;;;;;10.00;2.38;;;4.00;99.90;;;;;;4952758;28;20043;-77
2022/02/07 08:57:26;;;;;;;11.95;1.90;;;;;;;;;;4943235;28;20030;-77
2022/02/07 09:02:35;;;;;;;8.73;2.75;;;4.70;99.90;;;;;;4940716;28;20023;-75
2022/02/07 09:07:50;;;;;;;8.95;2.17;;;4.90;99.90;;;;;;4943740;28;20147;-77
2022/02/07 09:10:16;;;;;;;10.52;2.28;;;5.00;99.90;;;;;;4938497;28;20039;-78
2022/02/07 09:12:45;;;;;;;7.88;1.70;;;5.20;99.90;;;;;;4945083;28;20415;-78
2022/02/07 09:15:30;;;;;;;8.00;1.88;;;5.30;99.90;;;;;;4942992;28;20038;-77
2022/02/07 09:18:02;;;;;;;9.63;2.20;;;6.50;99.90;;;;;;4952089;28;20035;-77
2022/02/07 09:20:28;;;;;;;10.57;1.92;;;5.40;99.90;;;;;;4947367;28;20504;-77
2022/02/07 09:22:53;;;;;;;11.23;1.83;;;5.50;99.90;;;;;;4943866;28;20449;-76
2022/02/07 09:25:19;;;;;;;12.07;2.50;;;5.60;99.90;;;;;;4937203;28;20035;-77
2022/02/07 09:27:45;;;;;;;12.40;2.70;;;;;;;;;;4934560;28;20103;-77
2022/02/07 09:30:10;;;;;;;15.07;3.35;;;5.60;99.90;;;;;;4951324;28;20039;-77
2022/02/07 09:32:36;;;;;;;9.98;2.67;;;5.70;99.90;;;;;;4940332;28;20573;-78
2022/02/07 09:35:03;;;;;;;10.60;2.58;;;5.40;99.90;;;;;;4939980;28;20058;-78
2022/02/07 09:37:29;;;;;;;11.77;2.50;;;;;;;;;;4923911;28;20087;-78
2022/02/07 09:39:55;;;;;;;11.88;2.50;;;;;;;;;;4948356;28;20027;-78
2022/02/07 09:42:20;;;;;;;11.02;2.50;;;5.90;99.90;;;;;;4949293;28;20045;-78
2022/02/07 09:44:54;;;;;;;8.80;2.42;;;5.90;99.90;;;;;;4957299;28;20446;-78
2022/02/07 09:47:21;;;;;;;9.63;2.20;;;6.20;99.90;;;;;;4952770;28;20544;-78
2022/02/07 09:49:47;;;;;;;10.30;2.42;;;7.10;99.90;;;;;;4942986;28;20023;-77
2022/02/07 09:52:14;;;;;;;11.65;2.22;;;6.00;99.90;;;;;;4940560;28;20023;-79
2022/02/07 09:54:40;;;;;;;9.32;2.47;;;6.00;99.90;;;;;;4943824;28;20625;-78
2022/02/07 09:57:07;;;;;;;12.68;2.90;;;6.00;99.90;;;;;;4941656;28;20099;-78
2022/02/07 09:59:34;;;;;;;9.68;2.22;;;7.60;99.90;;;;;;4942137;28;20074;-78
2022/02/07 10:02:06;;;;;;;8.75;2.25;;;6.10;99.90;;;;;;4945275;28;20042;-79
2022/02/07 10:04:40;;;;;;;9.05;2.83;;;6.20;99.90;;;;;;4947461;28;20045;-77
2022/02/07 10:07:21;;;;;;;12.10;2.67;;;6.40;99.90;;;;;;4956151;28;20031;-78
2022/02/07 10:10:14;;;;;;;14.75;2.30;;;6.40;99.90;;;;;;4944602;28;20054;-74
2022/02/07 10:13:08;;;;;;;5.95;2.03;;;9.80;99.90;;;;;;4948310;28;20063;-78
2022/02/07 10:15:49;;;;;;;11.20;1.95;;;7.20;99.90;;;;;;4951718;28;20023;-80
2022/02/07 10:35:23;;;;;;;10.00;2.35;;;6.90;99.90;;;;;;4943832;28;20042;-77
2022/02/07 10:43:45;;;;;;;13.68;2.65;;;6.90;99.90;;;;;;4945433;28;20502;-77
2022/02/07 10:45:51;;;;;;;12.68;2.63;;;;;;;;;;4937668;28;20055;-77
2022/02/07 10:48:43;;;;;;;8.13;2.25;;;6.60;99.90;;;;;;4941325;28;20031;-77
2022/02/07 10:51:09;;;;;;;6.68;2.03;;;;;;;;;;4935985;28;20119;-77
2022/02/07 10:53:41;;;;;;;9.95;2.28;;;7.10;99.90;;;;;;4939923;28;20118;-77
2022/02/07 10:56:08;;;;;;;10.48;2.10;;;7.20;99.90;;;;;;4937677;28;21477;-78
2022/02/07 10:58:34;;;;;;;14.65;3.47;;;;;;;;;;4935532;28;20045;-79
2022/02/07 11:02:20;;;;;;;9.50;1.85;;;;;;;;;;4957015;28;20035;-77
2022/02/07 11:03:54;;;;;;;11.70;2.08;;;;;;;;;;4932974;28;20027;-76
2022/02/07 11:06:27;;;;;;;11.32;2.25;;;7.80;99.90;;;;;;4938521;28;20023;-77
2022/02/07 11:16:35;;;;;;;8.35;1.95;;;7.70;99.90;;;;;;4943889;28;20028;-77
2022/02/07 11:21:37;;;;;;;9.10;2.20;;;;;;;;;;4943675;28;20030;-77
2022/02/07 11:24:31;;;;;;;6.78;2.10;;;7.70;99.90;;;;;;4937223;29;22984;-78
2022/02/07 11:27:32;;;;;;;9.48;2.40;;;7.70;99.90;;;;;;4935548;28;20035;-77
2022/02/07 11:29:59;;;;;;;7.57;1.77;;;7.70;99.90;;;;;;4961455;28;20051;-77
2022/02/07 11:32:40;;;;;;;8.15;2.20;;;7.70;99.90;;;;;;4956102;28;20028;-77
2022/02/07 11:35:27;;;;;;;14.23;2.63;;;7.70;99.90;;;;;;4954883;28;20518;-77
2022/02/07 11:38:02;;;;;;;9.02;2.10;;;7.60;99.90;;;;;;4939868;28;20118;-77
2022/02/07 11:40:33;;;;;;;8.43;1.90;;;8.30;99.90;;;;;;4945030;28;20523;-78
2022/02/07 11:43:18;;;;;;;10.80;1.90;;;7.40;99.90;;;;;;4956964;28;20472;-77
2022/02/07 11:45:49;;;;;;;11.18;2.35;;;7.40;99.90;;;;;;4946443;28;20035;-78
2022/02/07 11:48:17;;;;;;;6.40;1.63;;;7.40;99.90;;;;;;4942463;28;20027;-78
2022/02/07 11:50:44;;;;;;;8.30;2.17;;;8.90;99.90;;;;;;4946073;28;20039;-78
2022/02/07 11:53:11;;;;;;;11.40;3.05;;;7.30;99.90;;;;;;4942392;28;20427;-79
2022/02/07 11:55:43;;;;;;;8.48;2.03;;;7.20;99.90;;;;;;4940684;28;20111;-78
2022/02/07 11:58:25;;;;;;;8.02;1.80;;;;;;;;;;4944852;28;20057;-80
2022/02/07 12:00:57;;;;;;;6.82;1.85;;;;;;;;;;4943352;28;20027;-78
2022/02/07 12:03:23;;;;;;;11.82;2.88;;;;;;;;;;4961708;28;20032;-77
2022/02/07 12:05:56;;;;;;;14.65;2.97;;;6.90;99.90;;;;;;4945626;28;20038;-78
2022/02/07 12:08:27;;;;;;;16.63;4.10;;;6.90;99.90;;;;;;4946016;28;20028;-78
2022/02/07 12:11:06;;;;;;;17.55;4.40;;;6.90;99.90;;;;;;4947572;28;20038;-78
2022/02/07 12:13:32;;;;;;;14.23;3.55;;;;;;;;;;4948426;28;20426;-79
2022/02/07 12:16:04;;;;;;;11.45;3.53;;;6.90;99.90;;;;;;4967295;28;20031;-79
2022/02/07 12:18:30;;;;;;;8.32;2.20;;;7.00;99.90;;;;;;4949370;28;20034;-78
2022/02/07 12:21:25;;;;;;;12.15;3.00;;;7.10;99.90;;;;;;4945707;28;20035;-77
2022/02/07 12:23:52;;;;;;;11.23;2.13;;;;;;;;;;4946064;28;20087;-79
2022/02/07 12:26:18;;;;;;;14.05;2.92;;;;;;;;;;4960268;28;20490;-76
2022/02/07 12:28:56;;;;;;;11.70;2.85;;;;;;;;;;4946293;28;20035;-80
2022/02/07 12:31:22;;;;;;;12.88;4.05;;;;;;;;;;4944705;28;20038;-79
2022/02/07 12:33:56;;;;;;;15.02;1.83;;;;;;;;;;4960892;28;20406;-79
2022/02/07 12:36:23;;;;;;;8.23;1.83;;;;;;;;;;4939279;28;20103;-76
2022/02/07 12:38:50;;;;;;;10.05;2.20;;;;;;;;;;4947332;28;20035;-79
2022/02/07 12:41:17;;;;;;;6.82;2.45;;;;;;;;;;4964207;28;20154;-78
2022/02/07 12:43:44;;;;;;;7.75;2.58;;;6.90;99.90;;;;;;4961742;28;20098;-78
2022/02/07 12:46:13;;;;;;;7.38;1.58;;;7.00;99.90;;;;;;4951808;28;20033;-78
2022/02/07 12:48:49;;;;;;;9.57;2.03;;;;;;;;;;4946160;28;20102;-74
2022/02/07 12:51:15;;;;;;;11.88;1.85;;;;;;;;;;4942942;28;20027;-77
2022/02/07 12:53:41;;;;;;;13.30;2.30;;;;;;;;;;4947937;28;20031;-79
2022/02/07 12:56:09;;;;;;;8.07;2.13;;;;;;;;;;4958086;28;20069;-78
2022/02/07 12:58:37;;;;;;;7.63;2.22;;;7.30;99.90;;;;;;4944966;28;20028;-76
2022/02/07 13:01:36;;;;;;;8.05;1.70;;;7.40;99.90;;;;;;4946959;28;20031;-78
2022/02/07 13:04:12;;;;;;;7.85;1.70;;;7.70;99.90;;;;;;4935657;28;20067;-78
2022/02/07 13:06:39;;;;;;;4.95;1.30;;;7.80;99.90;;;;;;4960596;28;20027;-78
2022/02/07 13:09:25;;;;;;;12.00;2.33;;;7.90;99.90;;;;;;4929073;29;20054;-78
2022/02/07 13:12:05;;;;;;;7.00;1.63;;;8.00;99.90;;;;;;4951655;28;20034;-78
2022/02/07 13:14:32;;;;;;;6.90;1.70;;;;;;;;;;4942241;28;20039;-78
2022/02/07 13:16:58;;;;;;;7.25;1.50;;;;;;;;;;4946401;28;21988;-78
2022/02/07 13:19:25;;;;;;;9.00;1.60;;;;;;;;;;4945588;28;20040;-79
2022/02/07 13:21:53;;;;;;;8.95;1.83;;;8.10;99.90;;;;;;4939303;28;20503;-77
2022/02/07 13:24:26;;;;;;;8.10;1.70;;;7.70;99.90;;;;;;4938829;28;20086;-78
2022/02/07 13:26:54;;;;;;;11.07;1.63;;;7.70;99.90;;;;;;4958735;28;20035;-78
2022/02/07 13:29:25;;;;;;;5.90;1.63;;;7.80;99.90;;;;;;4938839;28;20027;-78
2022/02/07 13:32:05;;;;;;;10.82;1.52;;;;;;;;;;4942465;28;20769;-77
2022/02/07 13:34:33;;;;;;;6.77;1.83;;;8.00;99.90;;;;;;4950797;28;20035;-77
2022/02/07 13:37:20;;;;;;;10.73;1.58;;;8.10;99.90;;;;;;4955675;28;20251;-77
2022/02/07 13:39:56;;;;;;;9.70;1.98;;;8.20;99.90;;;;;;4940219;28;20023;-78
2022/02/07 13:42:41;;;;;;;7.40;1.60;;;8.30;99.90;;;;;;4955871;28;20415;-79
2022/02/07 13:45:10;;;;;;;8.13;1.70;;;;;;;;;;4946568;28;20060;-79
2022/02/07 13:47:38;;;;;;;9.15;1.52;;;8.40;99.90;;;;;;4945704;28;20035;-79
2022/02/07 13:50:13;;;;;;;9.70;1.92;;;8.70;99.90;;;;;;4943606;28;20043;-79
2022/02/07 13:52:42;;;;;;;5.43;1.20;;;8.50;99.90;;;;;;4932527;28;20042;-77
2022/02/07 13:55:13;;;;;;;4.80;1.25;;;8.50;99.90;;;;;;4940929;28;20032;-79
2022/02/07 13:57:56;;;;;;;5.65;1.40;;;8.40;99.90;;;;;;4943092;28;20031;-78
2022/02/07 14:00:30;;;;;;;7.80;1.85;;;8.30;99.90;;;;;;4939204;28;20034;-79
2022/02/07 14:03:15;;;;;;;7.90;1.80;;;8.30;99.90;;;;;;4939695;28;20051;-78
2022/02/07 14:05:50;;;;;;;4.65;1.45;;;8.30;99.90;;;;;;4945675;28;20075;-77
2022/02/07 14:08:28;;;;;;;6.43;1.60;;;8.40;99.90;;;;;;4942545;28;20032;-76
2022/02/07 14:10:54;;;;;;;7.57;1.45;;;;;;;;;;4955214;28;20031;-77
2022/02/07 14:13:20;;;;;;;7.75;2.83;;;;;;;;;;4941196;28;20043;-79
2022/02/07 14:15:47;;;;;;;10.43;2.47;;;;;;;;;;4957616;28;20038;-78
2022/02/07 14:18:16;;;;;;;7.45;1.80;;;8.30;99.90;;;;;;4968476;28;20031;-76
2022/02/07 14:20:42;;;;;;;5.97;2.50;;;8.30;99.90;;;;;;4943548;28;20444;-78
2022/02/07 14:23:12;;;;;;;12.48;2.78;;;8.80;99.90;;;;;;4944053;28;20086;-78
2022/02/07 14:25:39;;;;;;;7.72;1.38;;;8.20;99.90;;;;;;4939762;28;20031;-78
2022/02/07 14:28:05;;;;;;;5.43;1.33;;;;;;;;;;4937264;28;20046;-78
2022/02/07 14:30:32;;;;;;;7.75;2.00;;;;;;;;;;4944488;28;20027;-78
2022/02/07 14:33:02;;;;;;;8.70;1.92;;;;;;;;;;4944508;28;20035;-79
2022/02/07 14:35:29;;;;;;;5.35;1.55;;;7.80;99.40;;;;;;4959527;28;20051;-78
2022/02/07 14:37:56;;;;;;;7.15;1.50;;;;;;;;;;4944985;28;20031;-78
2022/02/07 14:40:22;;;;;;;4.55;1.23;;;7.70;99.90;;;;;;4948155;28;20035;-77
2022/02/07 14:42:49;;;;;;;6.63;1.73;;;;;;;;;;4948956;28;20058;-78
2022/02/07 14:45:25;;;;;;;5.80;1.35;;;;;;;;;;4943480;28;20127;-80
2022/02/07 14:47:52;;;;;;;6.25;1.70;;;;;;;;;;4944177;28;20035;-76
2022/02/07 14:50:26;;;;;;;9.70;2.10;;;;;;;;;;4942020;28;20067;-78
2022/02/07 14:52:52;;;;;;;6.82;1.83;;;;;;;;;;4950399;28;20082;-79
2022/02/07 14:55:19;;;;;;;6.47;1.35;;;7.60;99.90;;;;;;4947050;28;20031;-78
2022/02/07 14:57:45;;;;;;;9.93;1.88;;;;;;;;;;4944104;28;20035;-79
2022/02/07 15:00:13;;;;;;;6.85;1.70;;;;;;;;;;4960184;28;20043;-78
2022/02/07 15:02:39;;;;;;;6.65;1.65;;;;;;;;;;4943722;28;20396;-78
2022/02/07 15:05:06;;;;;;;7.60;1.60;;;7.90;99.90;;;;;;4946532;28;20562;-78
2022/02/07 15:07:32;;;;;;;8.95;1.75;;;;;;;;;;4940594;28;20024;-78
2022/02/07 15:09:58;;;;;;;7.97;1.27;;;;;;;;;;4948970;28;20566;-76
2022/02/07 15:12:24;;;;;;;8.57;1.58;;;;;;;;;;4944572;28;20032;-78
2022/02/07 15:14:50;;;;;;;7.30;1.50;;;;;;;;;;4940606;28;20036;-79
2022/02/07 15:17:17;;;;;;;7.32;1.55;;;;;;;;;;4956810;28;20114;-79
2022/02/07 15:19:43;;;;;;;5.70;1.40;;;;;;;;;;4945588;28;20035;-78
2022/02/07 15:22:09;;;;;;;8.90;1.90;;;;;;;;;;4944881;28;20066;-78
2022/02/07 15:24:36;;;;;;;5.32;1.00;;;;;;;;;;4947477;28;20106;-79
2022/02/07 15:27:02;;;;;;;5.22;1.30;;;;;;;;;;4943934;28;20039;-77
2022/02/07 15:29:28;;;;;;;11.00;1.63;;;;;;;;;;4943054;28;20031;-78
2022/02/07 15:32:09;;;;;;;6.55;1.52;;;;;;;;;;4955465;28;20027;-79
2022/02/07 15:34:35;;;;;;;;;;;7.70;99.90;;;;;;4961224;28;20039;-79
2022/02/07 15:37:02;;;;;;;4.95;1.20;;;;;;;;;;4954364;28;19938;-79
2022/02/07 15:39:28;;;;;;;5.13;1.48;;;;;;;;;;4960293;28;20042;-79
2022/02/07 15:41:54;;;;;;;7.35;1.55;;;;;;;;;;4963908;28;20043;-78
2022/02/07 15:44:20;;;;;;;5.90;1.40;;;;;;;;;;4968055;28;20757;-79
2022/02/07 15:46:47;;;;;;;4.55;1.63;;;;;;;;;;4969197;28;20058;-80